Aviation Digital Data Service (ADDS)

Output produced by METARs form (0347 UTC 20 April 2014)
found at http://aviationweather.gov/adds/metars/
 
KEKN 192326Z 2000/2024 VRB05KT P6SM FEW150 SCT250 
     FM200800 00000KT P6SM SKC 
     FM201600 13004KT P6SM SKC